TimeEST,TemperatureF,Dew PointF,Humidity,Sea Level PressureIn,VisibilityMPH,Wind Direction,Wind SpeedMPH,Gust SpeedMPH,PrecipitationIn,Events,Conditions,WindDirDegrees,DateUTC
12:53 AM,75.0,69.1,82,30.15,10.0,East,9.2,-,N/A,,Clear,90,2013-01-06 05:53:00
1:53 AM,75.0,69.1,82,30.13,10.0,East,8.1,-,N/A,,Clear,90,2013-01-06 06:53:00
2:53 AM,75.9,69.1,79,30.11,10.0,ESE,6.9,-,N/A,,Clear,110,2013-01-06 07:53:00
3:53 AM,75.0,69.1,82,30.10,10.0,East,6.9,-,N/A,,Clear,100,2013-01-06 08:53:00
5:53 AM,75.9,68.0,76,30.10,10.0,ESE,6.9,-,N/A,,Clear,110,2013-01-06 10:53:00
6:53 AM,75.9,68.0,76,30.11,10.0,ESE,6.9,-,N/A,,Partly Cloudy,110,2013-01-06 11:53:00
7:53 AM,75.9,69.1,79,30.13,10.0,ESE,6.9,-,N/A,,Clear,120,2013-01-06 12:53:00
8:53 AM,78.1,69.1,74,30.14,10.0,ESE,5.8,-,N/A,,Partly Cloudy,120,2013-01-06 13:53:00
9:53 AM,80.1,69.1,69,30.14,10.0,ESE,6.9,-,N/A,,Clear,120,2013-01-06 14:53:00
10:53 AM,81.0,69.1,67,30.13,10.0,Variable,5.8,-,N/A,,Clear,0,2013-01-06 15:53:00
11:53 AM,82.0,69.1,65,30.11,10.0,SE,8.1,-,N/A,,Partly Cloudy,130,2013-01-06 16:53:00
12:33 PM,82.4,69.8,66,30.10,10.0,SE,6.9,-,N/A,,Mostly Cloudy,140,2013-01-06 17:33:00
12:41 PM,84.2,69.8,62,30.09,10.0,Variable,5.8,-,N/A,,Mostly Cloudy,0,2013-01-06 17:41:00
12:51 PM,82.4,69.8,66,30.09,10.0,SE,5.8,-,N/A,,Mostly Cloudy,130,2013-01-06 17:51:00
12:53 PM,82.9,70.0,65,30.09,10.0,SE,6.9,-,N/A,,Mostly Cloudy,130,2013-01-06 17:53:00
1:07 PM,82.4,69.8,66,30.08,10.0,SE,8.1,-,N/A,,Scattered Clouds,130,2013-01-06 18:07:00
1:53 PM,82.9,69.1,63,30.06,10.0,SE,5.8,-,N/A,,Clear,140,2013-01-06 18:53:00
2:53 PM,81.0,69.1,67,30.05,10.0,SE,6.9,-,N/A,,Partly Cloudy,140,2013-01-06 19:53:00
3:53 PM,81.0,69.1,67,30.06,10.0,SE,6.9,-,N/A,,Partly Cloudy,130,2013-01-06 20:53:00
4:53 PM,79.0,69.1,72,30.06,10.0,SE,5.8,-,N/A,,Scattered Clouds,140,2013-01-06 21:53:00
5:53 PM,78.1,69.1,74,30.07,10.0,SE,4.6,-,N/A,,Partly Cloudy,130,2013-01-06 22:53:00
6:53 PM,77.0,69.1,76,30.07,10.0,ESE,5.8,-,N/A,,Partly Cloudy,120,2013-01-06 23:53:00
7:53 PM,77.0,68.0,74,30.09,10.0,ESE,3.5,-,N/A,,Mostly Cloudy,110,2013-01-07 00:53:00
8:53 PM,77.0,68.0,74,30.11,10.0,ESE,4.6,-,N/A,,Clear,120,2013-01-07 01:53:00
9:53 PM,75.9,68.0,76,30.11,10.0,Calm,Calm,-,N/A,,Mostly Cloudy,0,2013-01-07 02:53:00
10:53 PM,75.9,68.0,76,30.11,10.0,Calm,Calm,-,N/A,,Clear,0,2013-01-07 03:53:00
11:53 PM,75.0,68.0,79,30.11,10.0,Calm,Calm,-,N/A,,Clear,0,2013-01-07 04:53:00